CheckWX is a tool to help pilots better visualize weather data.  It is not intended as a substitute for an official pre-flight weather briefing.

22:48:36 UTC

KAFO METAR
Afton Municipal Airport
Afton, Wyoming, USA
Current

34 mins ago

KAFO 082215Z AUTO 29006KT 10SM CLR 22/03 A3012 RMK AO2
Observed
Jul-8 @ 22:15 UTC
Wind
  • 290° at 6 KTS
Visibility
10 SM
Flight Rules
VFR
Cloud Levels
  • Clear skies
Temperature
22°C / 72°F
Dewpoint
C / 37°F
Humidity
29%
Altimeter
30.12" Hg
Pressure
1020.02 hPa
Previous

54 mins ago

KAFO 082155Z AUTO 26006KT 10SM CLR 21/03 A3012 RMK AO2
Observed
Jul-8 @ 21:55 UTC
Wind
  • 260° at 6 KTS
Visibility
10 SM
Flight Rules
VFR
Cloud Levels
  • Clear skies
Temperature
21°C / 70°F
Dewpoint
C / 37°F
Humidity
31%
Altimeter
30.12" Hg
Pressure
1020.02 hPa
Previous

1 hour ago

KAFO 082135Z AUTO 24010G17KT 10SM CLR 21/02 A3012 RMK AO2
Observed
Jul-8 @ 21:35 UTC
Wind
  • 240° at 10 KTS
  • Gusting to 17 KTS
Visibility
10 SM
Flight Rules
VFR
Cloud Levels
  • Clear skies
Temperature
21°C / 70°F
Dewpoint
C / 36°F
Humidity
29%
Altimeter
30.12" Hg
Pressure
1020.02 hPa